Terminal Aerodrome Forecast
Issued by NWS Omaha/Valley, NE

Home | Current Version | Previous Version | Graphics & Text | Print | Product List | Glossary On
Versions: 1 2 3 4 5 6 7 8 9 10 11 12 13 14 15 16 17 18
000
FTUS43 KOAX 161559 AAB
TAFOFK
TAF AMD
KOFK 161559Z 1616/1712 04006KT P6SM VCSH BKN008 OVC025
      TEMPO 1616/1618 SCT008 BKN025 OVC050
     FM161800 34010KT P6SM VCSH BKN050
     FM170000 33010KT P6SM BKN050=

USA.gov is the U.S. government's official web portal to all federal, state and local government web resources and services.